Ashland, Ohio
Current Conditions -  °F | °C
As of 4:52 PM on Tuesday 25 Nov 2014 (Local Time) from KMFD Reporting Station
Overcast Overcast  
Wind Chill: 25°   Ceiling: 1900
Heat Index: 33°   Visibility: 10mi
Dew Point: 27°   Wind: 9mph
Humidity: 78%   Direction: 260°W
Pressure: 30.09"   Gusts: NA
Location:  40.87°N, 82.31°W
Report Text: KMFD 252152Z 26008KT 10SM OVC019 01/M03 A3009 RMK AO2 SLP201 T00061028
Loading
Personal Weather Stations






























Interactive Weather Map New forecast layout! Learn more

10-Day Weather Forecast

Advertisements
Track Severe Weather on mobile